Time;durP1;ratioP1;P1;durP2;ratioP2;P2;SDS_P1;SDS_P2;PMS_P1;PMS_P2;Temp;Humidity;BMP_temperature;BMP_pressure;BME280_temperature;BME280_humidity;BME280_pressure;Samples;Min_cycle;Max_cycle;Signal;HPM_P1;HPM_P2
2022/06/27 00:00:00;;;;;;;;;;;18.20;99.90;;;;;;5013232;28;20699;-66
2022/06/27 00:02:29;;;;;;;;;;;18.20;99.90;;;;;;5012500;28;20226;-66
2022/06/27 00:04:57;;;;;;;;;;;18.40;99.90;;;;;;5013013;28;20207;-66
2022/06/27 00:07:24;;;;;;;;;;;18.30;99.90;;;;;;5011995;28;20643;-66
2022/06/27 00:09:52;;;;;;;;;;;18.40;99.90;;;;;;5012968;28;20265;-66
2022/06/27 00:12:20;;;;;;;;;;;18.30;99.90;;;;;;5012368;28;20943;-65
2022/06/27 00:14:49;;;;;;;;;;;18.20;99.90;;;;;;5012723;28;20199;-65
2022/06/27 00:17:17;;;;;;;;;;;18.10;99.90;;;;;;5012965;28;20275;-64
2022/06/27 00:19:45;;;;;;;;;;;18.00;99.90;;;;;;5012509;28;20683;-63
2022/06/27 00:22:12;;;;;;;;;;;17.90;99.90;;;;;;5012215;28;20281;-64
2022/06/27 00:24:40;;;;;;;;;;;17.80;99.90;;;;;;5012640;28;20586;-64
2022/06/27 00:27:08;;;;;;;;;;;17.80;99.90;;;;;;5012501;28;20203;-64
2022/06/27 00:29:36;;;;;;;;;;;17.80;99.90;;;;;;5012695;28;20206;-64
2022/06/27 00:32:05;;;;;;;;;;;17.80;99.90;;;;;;5012015;28;20245;-64
2022/06/27 00:34:33;;;;;;;;;;;17.80;99.90;;;;;;5012494;28;20204;-64
2022/06/27 00:37:01;;;;;;;;;;;17.90;99.90;;;;;;5012390;28;20230;-64
2022/06/27 00:39:29;;;;;;;;;;;17.90;99.90;;;;;;4994919;28;20210;-64
2022/06/27 00:41:57;;;;;;;;;;;17.90;99.90;;;;;;5011958;28;20710;-64
2022/06/27 00:44:32;;;;;;;;;;;18.00;99.90;;;;;;5012408;28;20258;-64
2022/06/27 00:46:59;;;;;;;;;;;18.10;99.90;;;;;;5011906;28;20227;-64
2022/06/27 00:49:29;;;;;;;;;;;18.10;99.90;;;;;;5012397;28;20191;-64
2022/06/27 00:51:57;;;;;;;;;;;18.10;99.90;;;;;;5010119;28;20258;-63
2022/06/27 00:54:25;;;;;;;;;;;18.10;99.90;;;;;;5009463;28;20325;-65
2022/06/27 00:56:54;;;;;;;;;;;18.20;99.90;;;;;;5009490;28;20245;-65
2022/06/27 00:59:21;;;;;;;;;;;18.40;99.90;;;;;;5009867;28;20745;-65
2022/06/27 01:01:49;;;;;;;;;;;18.40;99.90;;;;;;5005340;28;20188;-65
2022/06/27 01:04:21;;;;;;;;;;;18.60;99.90;;;;;;5008744;28;20202;-65
2022/06/27 01:06:51;;;;;;;;;;;18.70;99.90;;;;;;5005280;28;20210;-65
2022/06/27 01:09:19;;;;;;;;;;;18.70;99.90;;;;;;5007321;28;20230;-65
2022/06/27 01:11:47;;;;;;;;;;;18.70;99.90;;;;;;5008504;28;20192;-65
2022/06/27 01:14:15;;;;;;;;;;;18.90;99.90;;;;;;5011276;28;20207;-65
2022/06/27 01:16:43;;;;;;;;;;;18.90;99.90;;;;;;5011645;28;20257;-65
2022/06/27 01:19:11;;;;;;;;;;;19.00;99.90;;;;;;5008894;28;20195;-65
2022/06/27 01:21:41;;;;;;;;;;;19.10;99.90;;;;;;5009660;28;20286;-65
2022/06/27 01:24:10;;;;;;;;;;;19.20;99.90;;;;;;5004224;28;20238;-65
2022/06/27 01:26:38;;;;;;;;;;;19.00;99.90;;;;;;5007737;28;20203;-64
2022/06/27 01:29:06;;;;;;;;;;;18.90;99.90;;;;;;5007795;28;20222;-64
2022/06/27 01:31:35;;;;;;;;;;;18.80;99.90;;;;;;5002690;28;20203;-65
2022/06/27 01:34:03;;;;;;;;;;;18.90;99.90;;;;;;5006158;28;20199;-65
2022/06/27 01:36:42;;;;;;;;;;;18.90;99.90;;;;;;5010418;28;20219;-64
2022/06/27 01:39:12;;;;;;;;;;;18.90;99.90;;;;;;5007091;28;20229;-64
2022/06/27 01:41:41;;;;;;;;;;;19.00;99.90;;;;;;5008527;28;20230;-64
2022/06/27 01:44:09;;;;;;;;;;;19.00;99.90;;;;;;5007360;28;20199;-63
2022/06/27 01:46:40;;;;;;;;;;;18.90;99.90;;;;;;5009228;28;20195;-64
2022/06/27 01:49:08;;;;;;;;;;;18.80;99.90;;;;;;5004670;28;20203;-65
2022/06/27 01:51:37;;;;;;;;;;;18.60;99.90;;;;;;5011287;28;20229;-65
2022/06/27 01:54:04;;;;;;;;;;;18.50;99.90;;;;;;5005614;28;20207;-64
2022/06/27 01:56:34;;;;;;;;;;;18.40;99.90;;;;;;5007247;28;20285;-64
2022/06/27 01:59:02;;;;;;;;;;;18.40;99.90;;;;;;5013141;28;20234;-65
2022/06/27 02:01:29;;;;;;;;;;;18.40;99.90;;;;;;5012553;28;20210;-64
2022/06/27 02:03:59;;;;;;;;;;;18.40;99.90;;;;;;5011322;28;20191;-64
2022/06/27 02:06:27;;;;;;;;;;;18.30;99.90;;;;;;5013409;28;20968;-64
2022/06/27 02:08:56;;;;;;;;;;;18.20;99.90;;;;;;5014329;28;20549;-65
2022/06/27 02:11:24;;;;;;;;;;;18.10;99.90;;;;;;5009269;28;20199;-64
2022/06/27 02:13:54;;;;;;;;;;;18.00;99.90;;;;;;5011512;28;20680;-64
2022/06/27 02:16:22;;;;;;;;;;;18.00;99.90;;;;;;5010896;28;20207;-64
2022/06/27 02:18:50;;;;;;;;;;;18.00;99.90;;;;;;5012992;28;20289;-64
2022/06/27 02:21:19;;;;;;;;;;;18.00;99.90;;;;;;5012772;28;20222;-64
2022/06/27 02:23:48;;;;;;;;;;;18.00;99.90;;;;;;5008607;28;20623;-65
2022/06/27 02:26:16;;;;;;;;;;;18.00;99.90;;;;;;5009557;28;20207;-64
2022/06/27 02:28:44;;;;;;;;;;;18.10;99.90;;;;;;5009951;28;20265;-65
2022/06/27 02:31:13;;;;;;;;;;;18.10;99.90;;;;;;5010744;28;20303;-65
2022/06/27 02:33:43;;;;;;;;;;;18.20;99.90;;;;;;5007441;28;20203;-64
2022/06/27 02:36:13;;;;;;;;;;;18.10;99.90;;;;;;5009830;28;20287;-65
2022/06/27 02:38:41;;;;;;;;;;;18.10;99.90;;;;;;5007605;28;20207;-64
2022/06/27 02:41:11;;;;;;;;;;;18.20;99.90;;;;;;5008721;28;20288;-65
2022/06/27 02:43:39;;;;;;;;;;;18.20;99.90;;;;;;5008147;28;20246;-64
2022/06/27 02:46:08;;;;;;;;;;;18.30;99.90;;;;;;5009158;28;20257;-65
2022/06/27 02:48:37;;;;;;;;;;;18.30;99.90;;;;;;5011771;28;20557;-64
2022/06/27 02:51:06;;;;;;;;;;;18.40;99.90;;;;;;5013562;28;20643;-64
2022/06/27 02:53:35;;;;;;;;;;;18.50;99.90;;;;;;5010326;28;20287;-65
2022/06/27 02:56:06;;;;;;;;;;;18.60;99.90;;;;;;5009424;28;20195;-65
2022/06/27 02:58:34;;;;;;;;;;;18.70;99.90;;;;;;5007556;28;20257;-65
2022/06/27 03:01:03;;;;;;;;;;;18.80;99.90;;;;;;5010259;28;20195;-65
2022/06/27 03:03:32;;;;;;;;;;;18.90;99.90;;;;;;5013353;28;20641;-65
2022/06/27 03:06:02;;;;;;;;;;;18.90;99.90;;;;;;5007227;28;20205;-65
2022/06/27 03:08:37;;;;;;;;;;;18.90;99.90;;;;;;5009683;28;20692;-65
2022/06/27 03:11:05;;;;;;;;;;;18.90;99.90;;;;;;5010120;28;20628;-65
2022/06/27 03:13:33;;;;;;;;;;;19.00;99.90;;;;;;5009919;28;20237;-65
2022/06/27 03:16:01;;;;;;;;;;;19.00;99.90;;;;;;5009516;28;20819;-65
2022/06/27 03:18:29;;;;;;;;;;;19.10;99.90;;;;;;5007689;28;20191;-66
2022/06/27 03:20:57;;;;;;;;;;;19.00;99.90;;;;;;5009362;28;20219;-65
2022/06/27 03:23:27;;;;;;;;;;;19.10;99.90;;;;;;5010673;28;20203;-66
2022/06/27 03:25:55;;;;;;;;;;;19.10;99.90;;;;;;5011848;28;20199;-65
2022/06/27 03:28:23;;;;;;;;;;;19.10;99.90;;;;;;5012178;28;20260;-66
2022/06/27 03:30:50;;;;;;;;;;;19.20;99.90;;;;;;5009949;28;20637;-66
2022/06/27 03:33:18;;;;;;;;;;;19.20;99.90;;;;;;5009990;28;20249;-65
2022/06/27 03:35:46;;;;;;;;;;;19.20;99.90;;;;;;5011931;28;20258;-65
2022/06/27 03:38:14;;;;;;;;;;;19.10;99.90;;;;;;5008837;28;20297;-66
2022/06/27 03:40:43;;;;;;;;;;;19.10;99.90;;;;;;5010949;28;20206;-66
2022/06/27 03:43:11;;;;;;;;;;;19.00;99.90;;;;;;5007754;28;20195;-66
2022/06/27 03:45:38;;;;;;;;;;;18.80;99.90;;;;;;5011671;28;20226;-66
2022/06/27 03:48:07;;;;;;;;;;;18.80;99.90;;;;;;5010294;28;20287;-66
2022/06/27 03:50:34;;;;;;;;;;;18.70;99.90;;;;;;5009175;28;20195;-66
2022/06/27 03:53:02;;;;;;;;;;;18.60;99.90;;;;;;5012862;28;20687;-65
2022/06/27 03:55:30;;;;;;;;;;;18.60;99.90;;;;;;5008298;28;20199;-66
2022/06/27 03:57:59;;;;;;;;;;;18.50;99.90;;;;;;5010273;28;20207;-65
2022/06/27 04:00:31;;;;;;;;;;;18.50;99.90;;;;;;5008529;28;20276;-65
2022/06/27 04:03:00;;;;;;;;;;;18.40;99.90;;;;;;5006960;28;20199;-66
2022/06/27 04:05:27;;;;;;;;;;;18.40;99.90;;;;;;5007431;28;20219;-66
2022/06/27 04:07:55;;;;;;;;;;;18.40;99.90;;;;;;5006587;28;20272;-66
2022/06/27 04:10:23;;;;;;;;;;;18.40;99.90;;;;;;5008469;28;20226;-66
2022/06/27 04:12:51;;;;;;;;;;;18.50;99.90;;;;;;5010521;28;20642;-66
2022/06/27 04:15:20;;;;;;;;;;;18.40;99.90;;;;;;5009723;28;20278;-66
2022/06/27 04:17:48;;;;;;;;;;;18.50;99.90;;;;;;5007694;28;20211;-66
2022/06/27 04:20:15;;;;;;;;;;;18.40;99.90;;;;;;5014199;28;20223;-66
2022/06/27 04:22:43;;;;;;;;;;;18.40;99.90;;;;;;5008122;28;20679;-66
2022/06/27 04:25:11;;;;;;;;;;;18.40;99.90;;;;;;5010161;28;20227;-66
2022/06/27 04:27:39;;;;;;;;;;;18.40;99.90;;;;;;5008929;28;20211;-66
2022/06/27 04:30:09;;;;;;;;;;;18.40;99.90;;;;;;5010617;28;20209;-65
2022/06/27 04:32:38;;;;;;;;;;;18.40;99.90;;;;;;5008391;28;20226;-66
2022/06/27 04:35:06;;;;;;;;;;;18.40;99.90;;;;;;5008266;28;20191;-66
2022/06/27 04:37:34;;;;;;;;;;;18.40;99.90;;;;;;5010515;28;20222;-66
2022/06/27 04:40:03;;;;;;;;;;;18.40;99.90;;;;;;5010273;28;20195;-66
2022/06/27 04:42:30;;;;;;;;;;;18.50;99.90;;;;;;5006815;28;20306;-66
2022/06/27 04:44:58;;;;;;;;;;;18.50;99.90;;;;;;5009367;28;20688;-66
2022/06/27 04:47:26;;;;;;;;;;;18.40;99.90;;;;;;5003129;28;20226;-68
2022/06/27 04:49:56;;;;;;;;;;;18.40;99.90;;;;;;4995281;28;20295;-68
2022/06/27 04:52:24;;;;;;;;;;;18.40;99.90;;;;;;4994670;28;20257;-66
2022/06/27 04:54:53;;;;;;;;;;;18.40;99.90;;;;;;4995139;28;20199;-67
2022/06/27 04:57:22;;;;;;;;;;;18.50;99.90;;;;;;4993622;28;20306;-67
2022/06/27 04:59:50;;;;;;;;;;;18.50;99.90;;;;;;4991461;28;20211;-66
2022/06/27 05:02:18;;;;;;;;;;;18.50;99.90;;;;;;4993841;28;20296;-66
2022/06/27 05:04:46;;;;;;;;;;;18.50;99.90;;;;;;4993218;28;20207;-66
2022/06/27 05:07:15;;;;;;;;;;;18.50;99.90;;;;;;4994307;28;21210;-68
2022/06/27 05:09:45;;;;;;;;;;;18.60;99.90;;;;;;4988832;28;20230;-68
2022/06/27 05:12:13;;;;;;;;;;;18.70;99.90;;;;;;4994588;28;21263;-67
2022/06/27 05:14:40;;;;;;;;;;;18.70;99.90;;;;;;4990626;28;20227;-67
2022/06/27 05:17:08;;;;;;;;;;;18.70;99.90;;;;;;4993567;28;20211;-67
2022/06/27 05:19:36;;;;;;;;;;;18.80;99.90;;;;;;4992388;28;20302;-69
2022/06/27 05:22:07;;;;;;;;;;;18.80;99.90;;;;;;4992116;28;20253;-66
2022/06/27 05:24:36;;;;;;;;;;;18.90;99.90;;;;;;4993469;28;20199;-67
2022/06/27 05:27:04;;;;;;;;;;;19.00;99.90;;;;;;4992888;28;21071;-66
2022/06/27 05:29:32;;;;;;;;;;;19.00;99.90;;;;;;4992695;28;20230;-66
2022/06/27 05:32:00;;;;;;;;;;;19.20;99.90;;;;;;4993710;28;20286;-67
2022/06/27 05:34:28;;;;;;;;;;;19.30;99.90;;;;;;4995784;28;20587;-67
2022/06/27 05:36:56;;;;;;;;;;;19.50;99.90;;;;;;4995054;28;20305;-66
2022/06/27 05:39:23;;;;;;;;;;;19.50;99.90;;;;;;4991548;28;20227;-67
2022/06/27 05:41:53;;;;;;;;;;;19.40;99.90;;;;;;4993818;28;20289;-66
2022/06/27 05:44:20;;;;;;;;;;;19.50;99.90;;;;;;4992608;28;20234;-68
2022/06/27 05:46:48;;;;;;;;;;;19.60;99.90;;;;;;4995643;28;20272;-66
2022/06/27 05:49:16;;;;;;;;;;;19.60;99.90;;;;;;4991936;28;20215;-67
2022/06/27 05:51:44;;;;;;;;;;;19.50;99.90;;;;;;4993933;28;20278;-66
2022/06/27 05:54:12;;;;;;;;;;;19.60;99.90;;;;;;4993470;28;20222;-66
2022/06/27 05:56:40;;;;;;;;;;;19.50;99.90;;;;;;4987830;28;20265;-66
2022/06/27 05:59:10;;;;;;;;;;;19.60;99.90;;;;;;4991447;28;20231;-66
2022/06/27 06:01:39;;;;;;;;;;;19.60;99.90;;;;;;4994184;28;20304;-66
2022/06/27 06:04:08;;;;;;;;;;;19.70;99.90;;;;;;4992383;28;20203;-66
2022/06/27 06:06:36;;;;;;;;;;;19.80;99.90;;;;;;4992044;28;20607;-66
2022/06/27 06:09:04;;;;;;;;;;;19.90;99.90;;;;;;4998976;28;20198;-67
2022/06/27 06:11:33;;;;;;;;;;;19.90;99.90;;;;;;5011622;28;20191;-66
2022/06/27 06:14:02;;;;;;;;;;;19.90;99.90;;;;;;5010803;28;20238;-66
2022/06/27 06:16:31;;;;;;;;;;;19.90;99.90;;;;;;5009302;28;20191;-66
2022/06/27 06:18:59;;;;;;;;;;;20.00;99.90;;;;;;5011089;28;20287;-66
2022/06/27 06:21:28;;;;;;;;;;;20.20;99.90;;;;;;5013364;28;20210;-66
2022/06/27 06:23:57;;;;;;;;;;;20.30;99.90;;;;;;5010385;28;20854;-66
2022/06/27 06:26:25;;;;;;;;;;;20.30;99.90;;;;;;5009284;28;20203;-67
2022/06/27 06:28:53;;;;;;;;;;;20.30;99.90;;;;;;5009444;28;20276;-67
2022/06/27 06:31:24;;;;;;;;;;;20.40;99.90;;;;;;5005943;28;20214;-66
2022/06/27 06:33:55;;;;;;;;;;;20.50;99.90;;;;;;5007671;28;20199;-67
2022/06/27 06:36:23;;;;;;;;;;;20.50;99.90;;;;;;4991412;28;20203;-67
2022/06/27 06:38:52;;;;;;;;;;;20.50;99.90;;;;;;5009460;28;20206;-67
2022/06/27 06:41:20;;;;;;;;;;;20.50;99.90;;;;;;5009517;28;20187;-67
2022/06/27 06:43:48;;;;;;;;;;;20.50;99.90;;;;;;4991875;28;20745;-67
2022/06/27 06:46:16;;;;;;;;;;;20.40;99.90;;;;;;5013600;28;20191;-67
2022/06/27 06:48:44;;;;;;;;;;;20.40;99.90;;;;;;5014888;28;20207;-67
2022/06/27 06:51:18;;;;;;;;;;;20.50;99.90;;;;;;5014995;28;20555;-67
2022/06/27 06:53:46;;;;;;;;;;;20.70;99.90;;;;;;5014197;28;20229;-67
2022/06/27 06:56:15;;;;;;;;;;;20.70;99.90;;;;;;5014330;28;20692;-67
2022/06/27 06:58:43;;;;;;;;;;;20.70;99.90;;;;;;5014178;28;20676;-67
2022/06/27 07:01:11;;;;;;;;;;;20.80;99.90;;;;;;5014378;28;20668;-67
2022/06/27 07:03:39;;;;;;;;;;;20.80;99.90;;;;;;5013658;28;20214;-64
2022/06/27 07:06:09;;;;;;;;;;;20.70;99.90;;;;;;5014197;28;20562;-64
2022/06/27 07:08:39;;;;;;;;;;;20.70;99.90;;;;;;5014215;28;20289;-65
2022/06/27 07:11:08;;;;;;;;;;;20.80;99.90;;;;;;5014301;28;20214;-64
2022/06/27 07:13:36;;;;;;;;;;;20.90;99.90;;;;;;4989535;28;20203;-65
2022/06/27 07:16:05;;;;;;;;;;;21.00;99.90;;;;;;5007687;28;20691;-65
2022/06/27 07:18:34;;;;;;;;;;;21.10;99.90;;;;;;5007545;28;20192;-65
2022/06/27 07:21:03;;;;;;;;;;;21.20;99.90;;;;;;4999973;28;20199;-65
2022/06/27 07:23:32;;;;;;;;;;;21.20;99.90;;;;;;5007473;28;20218;-65
2022/06/27 07:26:02;;;;;;;;;;;21.20;99.90;;;;;;5013851;28;20211;-65
2022/06/27 07:28:31;;;;;;;;;;;21.30;99.90;;;;;;4995901;28;20208;-65
2022/06/27 07:31:00;;;;;;;;;;;21.30;99.90;;;;;;5015119;28;20202;-65
2022/06/27 07:33:28;;;;;;;;;;;21.30;99.90;;;;;;5013084;28;20373;-65
2022/06/27 07:35:56;;;;;;;;;;;21.30;99.90;;;;;;5013665;28;20203;-65
2022/06/27 07:38:24;;;;;;;;;;;21.20;99.90;;;;;;5013449;28;20594;-64
2022/06/27 07:40:52;;;;;;;;;;;21.20;99.90;;;;;;4995888;28;20676;-64
2022/06/27 07:43:21;;;;;;;;;;;21.10;99.90;;;;;;5012989;28;20230;-65
2022/06/27 07:45:50;;;;;;;;;;;21.00;99.90;;;;;;5013478;28;20278;-65
2022/06/27 07:48:20;;;;;;;;;;;21.00;99.90;;;;;;5013375;28;20202;-65
2022/06/27 07:50:48;;;;;;;;;;;21.00;99.90;;;;;;4993585;28;20676;-65
2022/06/27 07:53:17;;;;;;;;;;;20.90;99.90;;;;;;5012564;28;20589;-65
2022/06/27 07:55:47;;;;;;;;;;;21.00;99.90;;;;;;5011890;28;20191;-65
2022/06/27 07:58:16;;;;;;;;;;;21.00;99.90;;;;;;5013322;28;20295;-65
2022/06/27 08:00:48;;;;;;;;;;;21.20;99.90;;;;;;5013274;28;20669;-65
2022/06/27 08:06:02;;;;;;;;;;;21.20;99.90;;;;;;5012907;28;20286;-65
2022/06/27 08:08:32;;;;;;;;;;;21.20;99.90;;;;;;4994750;28;20211;-65
2022/06/27 08:11:00;;;;;;;;;;;21.30;99.90;;;;;;4994988;28;20301;-65
2022/06/27 08:13:28;;;;;;;;;;;21.40;99.90;;;;;;4994269;28;20680;-65
2022/06/27 08:15:57;;;;;;;;;;;21.40;99.90;;;;;;5012477;28;20699;-65
2022/06/27 08:18:26;;;;;;;;;;;21.30;99.90;;;;;;5012075;28;20230;-65
2022/06/27 08:20:54;;;;;;;;;;;21.60;99.90;;;;;;4995882;28;20289;-65
2022/06/27 08:23:22;;;;;;;;;;;21.60;99.90;;;;;;4996932;28;20204;-65
2022/06/27 08:25:50;;;;;;;;;;;21.60;99.90;;;;;;4993832;28;20230;-65
2022/06/27 08:28:19;;;;;;;;;;;21.50;99.90;;;;;;4993398;28;20222;-65
2022/06/27 08:30:48;;;;;;;;;;;21.50;99.90;;;;;;4993451;28;20586;-65
2022/06/27 08:33:18;;;;;;;;;;;21.50;99.90;;;;;;4992673;28;20207;-65
2022/06/27 08:35:47;;;;;;;;;;;21.60;99.90;;;;;;4993251;28;20227;-65
2022/06/27 08:38:17;;;;;;;;;;;21.60;99.90;;;;;;4993071;28;20196;-65
2022/06/27 08:40:46;;;;;;;;;;;21.60;99.90;;;;;;4993491;28;20595;-65
2022/06/27 08:43:14;;;;;;;;;;;21.50;99.90;;;;;;4992669;28;20673;-65
2022/06/27 08:45:44;;;;;;;;;;;21.50;99.90;;;;;;4975598;28;20203;-65
2022/06/27 08:48:13;;;;;;;;;;;21.50;99.90;;;;;;4992924;28;20219;-65
2022/06/27 08:50:43;;;;;;;;;;;21.50;99.90;;;;;;4984286;28;20676;-65
2022/06/27 08:53:12;;;;;;;;;;;21.60;99.90;;;;;;4998670;28;20223;-65
2022/06/27 08:55:43;;;;;;;;;;;21.50;99.90;;;;;;5012085;28;20211;-65
2022/06/27 08:58:12;;;;;;;;;;;21.40;99.90;;;;;;5011517;28;20206;-65
2022/06/27 09:00:41;;;;;;;;;;;21.40;99.90;;;;;;4986910;28;20199;-65
2022/06/27 09:03:10;;;;;;;;;;;21.40;99.90;;;;;;4986644;28;20230;-64
2022/06/27 09:05:37;;;;;;;;;;;21.50;99.90;;;;;;4975489;28;20661;-65
2022/06/27 09:08:08;;;;;;;;;;;21.60;99.90;;;;;;5002376;28;20828;-65
2022/06/27 09:10:37;;;;;;;;;;;21.90;99.90;;;;;;5011520;28;20211;-65
2022/06/27 09:13:08;;;;;;;;;;;22.30;99.90;;;;;;5009563;28;20206;-65
2022/06/27 09:15:59;;;;;;;;;;;22.50;99.90;;;;;;5011500;28;20663;-65
2022/06/27 09:18:29;;;;;;;;;;;22.50;99.90;;;;;;5001003;28;20218;-65
2022/06/27 09:20:59;;;;;;;;;;;22.50;99.90;;;;;;4992727;28;20219;-65
2022/06/27 09:23:31;;;;;;;;;;;22.60;99.90;;;;;;5000339;28;20203;-65
2022/06/27 09:25:59;;;;;;;;;;;22.80;99.90;;;;;;5009634;28;20207;-65
2022/06/27 09:28:39;;;;;;;;;;;23.20;99.90;;;;;;5011087;28;20219;-65
2022/06/27 09:31:10;;;;;;;;;;;23.50;99.90;;;;;;5011566;28;20569;-64
2022/06/27 09:33:41;;;;;;;;;;;23.60;99.90;;;;;;4986205;28;20203;-65
2022/06/27 09:36:09;;;;;;;;;;;23.70;99.90;;;;;;4992750;28;20298;-65
2022/06/27 09:38:41;;;;;;;;;;;23.80;99.90;;;;;;4992348;28;20291;-65
2022/06/27 09:41:11;;;;;;;;;;;24.00;99.90;;;;;;4992526;28;20216;-65
2022/06/27 09:46:17;;;;;;;;;;;24.40;99.90;;;;;;4937158;29;20224;-66
2022/06/27 09:48:46;;;;;;;;;;;24.70;99.90;;;;;;4935517;29;20227;-64
2022/06/27 09:51:16;;;;;;;;;;;24.70;99.90;;;;;;4942002;28;20219;-62
2022/06/27 09:53:47;;;;;;;;;;;25.00;99.90;;;;;;4933468;29;20232;-64
2022/06/27 09:56:17;;;;;;;;;;;25.20;99.90;;;;;;4934180;29;20204;-65
2022/06/27 09:58:46;;;;;;;;;;;25.30;99.90;;;;;;4934416;29;20269;-65
2022/06/27 10:01:34;;;;;;;;;;;25.50;99.90;;;;;;4934170;29;20201;-64
2022/06/27 10:04:03;;;;;;;;;;;25.60;99.90;;;;;;4933432;29;20224;-64
2022/06/27 10:06:31;;;;;;;;;;;25.40;99.90;;;;;;4933873;29;20205;-64
2022/06/27 10:09:01;;;;;;;;;;;25.20;99.90;;;;;;4933648;29;20230;-64
2022/06/27 10:11:30;;;;;;;;;;;25.30;99.90;;;;;;4933920;29;20213;-64
2022/06/27 10:14:11;;;;;;;;;;;25.30;99.90;;;;;;4933221;29;20607;-64
2022/06/27 10:16:50;;;;;;;;;;;25.40;99.90;;;;;;4933906;29;20208;-66
2022/06/27 10:19:18;;;;;;;;;;;25.60;99.90;;;;;;4936940;29;20209;-65
2022/06/27 10:21:47;;;;;;;;;;;25.60;99.90;;;;;;4942987;29;20208;-64
2022/06/27 10:24:35;;;;;;;;;;;25.50;99.90;;;;;;4937028;29;20224;-63
2022/06/27 10:27:06;;;;;;;;;;;25.40;99.90;;;;;;4936948;29;20209;-66
2022/06/27 10:29:37;;;;;;;;;;;25.30;99.90;;;;;;4931026;29;20228;-65
2022/06/27 10:32:07;;;;;;;;;;;25.20;99.90;;;;;;4936745;29;20201;-65
2022/06/27 10:35:02;;;;;;;;;;;24.90;99.90;;;;;;4937175;29;20207;-65
2022/06/27 10:37:36;;;;;;;;;;;24.70;99.90;;;;;;4937400;28;20212;-64
2022/06/27 10:40:23;;;;;;;;;;;24.60;99.90;;;;;;4937035;29;20209;-64
2022/06/27 10:42:54;;;;;;;;;;;24.40;99.90;;;;;;4936504;29;20193;-65
2022/06/27 10:45:25;;;;;;;;;;;24.30;99.90;;;;;;4961232;28;20208;-65
2022/06/27 10:47:53;;;;;;;;;;;24.20;99.90;;;;;;4975225;28;20196;-65
2022/06/27 10:50:23;;;;;;;;;;;24.00;99.90;;;;;;4964345;28;20712;-65
2022/06/27 10:52:51;;;;;;;;;;;23.90;99.90;;;;;;4971509;28;20662;-65
2022/06/27 10:55:23;;;;;;;;;;;23.80;99.90;;;;;;4974328;28;20566;-65
2022/06/27 10:57:53;;;;;;;;;;;23.50;99.90;;;;;;4975080;28;20200;-64
2022/06/27 11:00:39;;;;;;;;;;;23.40;99.90;;;;;;4975147;28;20275;-64
2022/06/27 11:03:08;;;;;;;;;;;23.20;99.90;;;;;;4974070;28;20246;-67
2022/06/27 11:05:58;;;;;;;;;;;22.90;99.90;;;;;;4974005;28;20206;-65
2022/06/27 11:08:26;;;;;;;;;;;22.80;99.90;;;;;;4972957;28;20223;-65
2022/06/27 11:10:54;;;;;;;;;;;22.70;99.90;;;;;;4974763;28;20200;-64
2022/06/27 11:13:36;;;;;;;;;;;22.40;99.90;;;;;;4973777;28;20196;-64
2022/06/27 11:16:04;;;;;;;;;;;22.40;99.90;;;;;;4974467;28;20684;-65
2022/06/27 11:18:40;;;;;;;;;;;22.40;99.90;;;;;;4973627;28;20669;-65
2022/06/27 11:21:09;;;;;;;;;;;22.40;99.90;;;;;;4967027;28;20196;-65
2022/06/27 11:23:47;;;;;;;;;;;22.50;99.90;;;;;;4966562;28;20196;-64
2022/06/27 11:26:15;;;;;;;;;;;22.70;99.90;;;;;;4974451;28;20203;-66
2022/06/27 11:34:27;;;;;;;;;;;23.40;99.90;;;;;;4955770;28;20193;-66
2022/06/27 11:36:55;;;;;;;;;;;23.60;99.90;;;;;;4954385;28;20204;-65
2022/06/27 11:39:24;;;;;;;;;;;23.80;99.90;;;;;;4955811;28;20208;-65
2022/06/27 11:41:57;;;;;;;;;;;23.70;99.90;;;;;;4955750;28;20208;-65
2022/06/27 11:44:27;;;;;;;;;;;23.80;99.90;;;;;;4950591;28;20208;-66
2022/06/27 11:47:02;;;;;;;;;;;23.80;99.90;;;;;;4935778;29;20713;-65
2022/06/27 11:49:31;;;;;;;;;;;23.80;99.90;;;;;;4935677;29;20209;-65
2022/06/27 11:52:00;;;;;;;;;;;23.90;99.90;;;;;;4935127;29;20207;-67
2022/06/27 11:54:37;;;;;;;;;;;24.00;99.90;;;;;;4935877;29;20201;-65
2022/06/27 11:57:05;;;;;;;;;;;24.30;99.90;;;;;;4935919;29;20193;-65
2022/06/27 11:59:47;;;;;;;;;;;24.50;99.90;;;;;;4935505;29;20727;-66
2022/06/27 12:02:25;;;;;;;;;;;25.10;99.90;;;;;;4935225;29;20201;-66
2022/06/27 12:05:02;;;;;;;;;;;25.40;99.90;;;;;;4935653;29;20260;-65
2022/06/27 12:07:30;;;;;;;;;;;25.40;99.90;;;;;;4935735;29;20209;-67
2022/06/27 12:09:58;;;;;;;;;;;25.10;99.90;;;;;;4935355;29;20196;-65
2022/06/27 12:12:27;;;;;;;;;;;24.80;99.90;;;;;;4935246;29;20259;-64
2022/06/27 12:14:56;;;;;;;;;;;24.40;99.90;;;;;;4935536;29;20499;-65
2022/06/27 12:17:24;;;;;;;;;;;24.10;99.90;;;;;;4929478;29;20555;-65
2022/06/27 12:20:01;;;;;;;;;;;24.00;99.90;;;;;;4932241;29;20574;-65
2022/06/27 12:22:29;;;;;;;;;;;23.90;99.90;;;;;;4929879;29;20215;-63
2022/06/27 12:25:17;;;;;;;;;;;24.00;99.90;;;;;;4935821;29;20209;-65
2022/06/27 12:27:45;;;;;;;;;;;24.30;99.90;;;;;;4935601;29;20237;-65
2022/06/27 12:30:14;;;;;;;;;;;24.70;99.90;;;;;;4935049;29;20204;-65
2022/06/27 12:32:42;;;;;;;;;;;25.20;99.90;;;;;;4934298;29;20212;-68
2022/06/27 12:35:10;;;;;;;;;;;25.60;99.90;;;;;;4934944;29;20209;-65
2022/06/27 12:37:42;;;;;;;;;;;25.80;99.90;;;;;;4935121;29;20201;-65
2022/06/27 12:40:11;;;;;;;;;;;26.00;99.90;;;;;;4934984;29;20209;-66
2022/06/27 12:42:39;;;;;;;;;;;26.00;99.90;;;;;;4933891;29;20316;-66
2022/06/27 12:45:08;;;;;;;;;;;25.60;99.90;;;;;;4955275;28;20212;-66
2022/06/27 12:47:37;;;;;;;;;;;25.40;99.90;;;;;;4973459;28;20232;-66
2022/06/27 12:50:06;;;;;;;;;;;25.30;99.90;;;;;;4967194;28;20200;-65
2022/06/27 12:52:34;;;;;;;;;;;25.10;99.90;;;;;;4962620;28;20665;-65
2022/06/27 12:55:02;;;;;;;;;;;24.90;99.90;;;;;;4972800;28;20204;-66
2022/06/27 12:57:30;;;;;;;;;;;24.80;99.90;;;;;;4972619;28;20300;-65
2022/06/27 13:00:00;;;;;;;;;;;24.80;99.90;;;;;;4972865;28;20206;-66
2022/06/27 13:02:28;;;;;;;;;;;25.30;99.90;;;;;;4972331;28;20211;-66
2022/06/27 13:04:57;;;;;;;;;;;25.80;99.90;;;;;;4972577;28;20211;-65
2022/06/27 13:07:26;;;;;;;;;;;26.60;99.90;;;;;;4972327;28;20219;-66
2022/06/27 13:09:54;;;;;;;;;;;27.00;99.90;;;;;;4972612;28;20192;-64
2022/06/27 13:12:22;;;;;;;;;;;26.90;99.90;;;;;;4971724;28;20212;-65
2022/06/27 13:14:50;;;;;;;;;;;26.50;99.90;;;;;;4972500;28;20207;-66
2022/06/27 13:17:25;;;;;;;;;;;26.40;99.90;;;;;;4972521;28;20200;-66
2022/06/27 13:19:54;;;;;;;;;;;26.20;99.90;;;;;;4968605;28;20224;-65
2022/06/27 13:22:23;;;;;;;;;;;26.40;99.90;;;;;;4969033;28;20691;-66
2022/06/27 13:24:51;;;;;;;;;;;26.50;99.90;;;;;;4971573;28;20207;-65
2022/06/27 13:27:19;;;;;;;;;;;26.90;99.90;;;;;;4972564;28;20196;-66
2022/06/27 13:29:47;;;;;;;;;;;27.20;99.90;;;;;;4971847;28;20200;-64
2022/06/27 13:32:15;;;;;;;;;;;27.40;99.90;;;;;;4971931;28;20208;-65
2022/06/27 13:34:43;;;;;;;;;;;27.20;99.90;;;;;;4971926;28;20280;-66
2022/06/27 13:37:16;;;;;;;;;;;27.20;99.90;;;;;;4953360;28;20295;-65
2022/06/27 13:39:45;;;;;;;;;;;27.70;99.90;;;;;;4953334;28;20207;-66
2022/06/27 13:42:13;;;;;;;;;;;28.00;99.90;;;;;;4953093;28;20634;-67
2022/06/27 13:44:41;;;;;;;;;;;28.00;99.90;;;;;;4946324;28;20655;-66
2022/06/27 13:47:09;;;;;;;;;;;28.00;99.90;;;;;;4934135;29;20229;-66
2022/06/27 13:49:37;;;;;;;;;;;28.20;99.90;;;;;;4935520;29;20189;-66
2022/06/27 13:52:05;;;;;;;;;;;28.50;99.90;;;;;;4932907;29;20213;-65
2022/06/27 13:54:39;;;;;;;;;;;28.30;99.90;;;;;;4930464;29;20745;-65
2022/06/27 13:57:08;;;;;;;;;;;28.00;99.90;;;;;;4937947;29;20264;-66
2022/06/27 13:59:36;;;;;;;;;;;28.00;99.90;;;;;;4937958;29;20228;-65
2022/06/27 14:02:04;;;;;;;;;;;27.90;99.90;;;;;;4937218;29;20588;-65
2022/06/27 14:04:33;;;;;;;;;;;27.80;99.90;;;;;;4937595;29;20220;-66
2022/06/27 14:09:47;;;;;;;;;;;28.00;99.90;;;;;;4937838;29;20201;-66
2022/06/27 14:12:16;;;;;;;;;;;28.10;99.90;;;;;;4937050;29;20212;-66
2022/06/27 14:14:44;;;;;;;;;;;27.80;99.90;;;;;;4937137;29;20326;-64
2022/06/27 14:17:11;;;;;;;;;;;27.80;99.90;;;;;;4937634;29;20258;-67
2022/06/27 14:19:39;;;;;;;;;;;28.10;99.90;;;;;;4937469;29;20214;-64
2022/06/27 14:22:07;;;;;;;;;;;28.30;99.90;;;;;;4936798;29;20197;-66
2022/06/27 14:24:35;;;;;;;;;;;28.70;99.90;;;;;;4937360;29;20209;-66
2022/06/27 14:27:03;;;;;;;;;;;28.50;99.90;;;;;;4937291;29;20542;-66
2022/06/27 14:29:32;;;;;;;;;;;27.90;99.90;;;;;;4937320;29;20201;-66
2022/06/27 14:32:00;;;;;;;;;;;27.60;99.90;;;;;;4936813;29;20220;-67
2022/06/27 14:34:28;;;;;;;;;;;27.40;99.90;;;;;;4936946;29;20205;-66
2022/06/27 14:36:56;;;;;;;;;;;27.10;99.90;;;;;;4937140;29;20213;-65
2022/06/27 14:39:24;;;;;;;;;;;26.80;99.90;;;;;;4937169;29;20220;-66
2022/06/27 14:41:52;;;;;;;;;;;26.60;99.90;;;;;;4937019;29;20204;-65